createdAt,value
2019-03-06T00:00:28.402Z,42.40
2019-03-06T00:02:56.932Z,42.30
2019-03-06T00:05:25.386Z,42.50
2019-03-06T00:07:54.158Z,42.50
2019-03-06T00:10:25.734Z,42.50
2019-03-06T00:12:54.236Z,42.60
2019-03-06T00:15:22.693Z,42.40
2019-03-06T00:17:54.249Z,42.30
2019-03-06T00:20:22.725Z,42.10
2019-03-06T00:22:51.198Z,41.60
2019-03-06T00:25:19.678Z,41.40
2019-03-06T00:27:48.185Z,41.00
2019-03-06T00:30:18.316Z,40.70
2019-03-06T00:32:46.803Z,40.40
2019-03-06T00:35:28.873Z,40.10
2019-03-06T00:37:57.412Z,40.10
2019-03-06T00:40:33.509Z,39.90
2019-03-06T00:43:01.989Z,40.10
2019-03-06T00:45:30.622Z,40.40
2019-03-06T00:47:59.150Z,40.70
2019-03-06T00:50:27.975Z,41.00
2019-03-06T00:52:56.505Z,41.20
2019-03-06T00:55:25.083Z,40.70
2019-03-06T00:57:53.700Z,40.60
2019-03-06T01:00:24.561Z,40.00
2019-03-06T01:02:57.013Z,40.40
2019-03-06T01:05:25.772Z,40.50
2019-03-06T01:07:54.367Z,40.70
2019-03-06T01:10:22.821Z,40.70
2019-03-06T01:12:51.382Z,40.50
2019-03-06T01:15:20.014Z,40.10
2019-03-06T01:17:49.135Z,40.00
2019-03-06T01:20:17.663Z,40.20
2019-03-06T01:22:49.365Z,40.10
2019-03-06T01:25:23.314Z,40.00
2019-03-06T01:27:51.818Z,39.70
2019-03-06T01:30:21.666Z,40.00
2019-03-06T01:35:45.284Z,40.20
2019-03-06T01:38:18.573Z,40.30
2019-03-06T01:41:00.697Z,40.30
2019-03-06T01:43:36.949Z,40.10
2019-03-06T01:46:05.554Z,39.90
2019-03-06T01:48:34.060Z,40.20
2019-03-06T01:51:02.569Z,40.00
2019-03-06T01:53:31.119Z,39.50
2019-03-06T01:55:59.729Z,39.20
2019-03-06T01:58:28.225Z,38.10
2019-03-06T02:00:56.800Z,37.80
2019-03-06T02:03:25.277Z,37.80
2019-03-06T02:05:56.947Z,37.20
2019-03-06T02:08:25.419Z,37.20
2019-03-06T02:10:53.941Z,37.60
2019-03-06T02:13:25.418Z,36.60
2019-03-06T02:15:54.442Z,36.30
2019-03-06T02:18:23.000Z,36.60
2019-03-06T02:20:51.543Z,37.30
2019-03-06T02:23:20.171Z,37.00
2019-03-06T02:25:48.741Z,37.20
2019-03-06T02:28:17.458Z,37.70
2019-03-06T02:30:45.997Z,37.90
2019-03-06T02:33:14.543Z,38.10
2019-03-06T02:35:42.995Z,38.20
2019-03-06T02:38:11.499Z,38.30
2019-03-06T02:40:40.006Z,38.50
2019-03-06T02:43:08.502Z,38.60
2019-03-06T02:45:37.070Z,38.60
2019-03-06T02:48:05.927Z,38.70
2019-03-06T02:50:34.462Z,38.80
2019-03-06T02:53:03.000Z,38.90
2019-03-06T02:55:31.545Z,39.60
2019-03-06T02:58:04.277Z,39.00
2019-03-06T03:00:37.213Z,39.00
2019-03-06T03:03:25.494Z,39.20
2019-03-06T03:06:07.639Z,39.30
2019-03-06T03:08:36.075Z,39.30
2019-03-06T03:11:04.629Z,39.40
2019-03-06T03:13:33.524Z,39.40
2019-03-06T03:16:02.098Z,39.40
2019-03-06T03:18:30.582Z,39.50
2019-03-06T03:20:59.474Z,39.50
2019-03-06T03:23:27.949Z,39.70
2019-03-06T03:25:56.461Z,39.70
2019-03-06T03:28:24.997Z,39.70
2019-03-06T03:30:53.723Z,39.80
2019-03-06T03:33:22.409Z,39.90
2019-03-06T03:35:50.903Z,40.00
2019-03-06T03:38:19.464Z,40.00
2019-03-06T03:40:47.957Z,40.00
2019-03-06T03:43:16.466Z,40.00
2019-03-06T03:45:45.027Z,40.00
2019-03-06T03:48:13.513Z,40.10
2019-03-06T03:50:41.976Z,40.10
2019-03-06T03:53:10.507Z,40.20
2019-03-06T03:55:38.999Z,40.20
2019-03-06T03:58:10.619Z,40.20
2019-03-06T04:00:39.227Z,40.20
2019-03-06T04:03:07.764Z,40.20
2019-03-06T04:05:36.233Z,40.10
2019-03-06T04:08:04.728Z,40.20
2019-03-06T04:10:33.204Z,40.20
2019-03-06T04:13:01.741Z,40.20
2019-03-06T04:15:30.224Z,40.20
2019-03-06T04:17:58.742Z,40.20
2019-03-06T04:20:27.274Z,40.40
2019-03-06T04:22:55.779Z,40.30
2019-03-06T04:25:24.329Z,40.40
2019-03-06T04:27:53.068Z,40.50
2019-03-06T04:30:21.568Z,40.50
2019-03-06T04:32:50.564Z,40.60
2019-03-06T04:35:19.031Z,40.60
2019-03-06T04:37:47.567Z,40.70
2019-03-06T04:40:16.531Z,40.70
2019-03-06T04:42:45.013Z,40.70
2019-03-06T04:45:17.555Z,40.70
2019-03-06T04:47:46.055Z,40.70
2019-03-06T04:50:15.258Z,40.80
2019-03-06T04:52:44.057Z,40.90
2019-03-06T04:55:13.872Z,40.80
2019-03-06T04:57:42.418Z,40.90
2019-03-06T05:00:15.831Z,40.90
2019-03-06T05:02:44.301Z,40.90
2019-03-06T05:05:12.875Z,41.00
2019-03-06T05:07:41.357Z,41.10
2019-03-06T05:10:11.925Z,41.10
2019-03-06T05:12:40.406Z,41.10
2019-03-06T05:15:12.180Z,41.10
2019-03-06T05:17:42.300Z,41.70
2019-03-06T05:20:10.895Z,41.10
2019-03-06T05:22:39.353Z,41.00
2019-03-06T05:25:07.875Z,41.10
2019-03-06T05:27:36.342Z,41.00
2019-03-06T05:30:07.811Z,41.10
2019-03-06T05:32:37.057Z,41.00
2019-03-06T05:35:11.479Z,40.90
2019-03-06T05:37:58.321Z,41.00
2019-03-06T05:40:26.838Z,41.00
2019-03-06T05:42:55.812Z,41.70
2019-03-06T05:45:24.283Z,41.10
2019-03-06T05:47:52.797Z,41.10
2019-03-06T05:50:21.456Z,41.10
2019-03-06T05:52:49.939Z,41.10
2019-03-06T05:55:18.507Z,41.30
2019-03-06T05:57:47.052Z,41.30
2019-03-06T06:00:18.562Z,41.90
2019-03-06T06:02:47.302Z,41.30
2019-03-06T06:05:15.838Z,41.30
2019-03-06T06:07:44.380Z,41.30
2019-03-06T06:10:15.480Z,41.30
2019-03-06T06:12:44.002Z,41.30
2019-03-06T06:15:16.393Z,41.40
2019-03-06T06:17:44.994Z,41.40
2019-03-06T06:20:15.571Z,41.50
2019-03-06T06:22:51.527Z,41.40
2019-03-06T06:25:20.080Z,41.40
2019-03-06T06:27:48.673Z,41.50
2019-03-06T06:30:18.074Z,41.50
2019-03-06T06:32:46.720Z,41.40
2019-03-06T06:35:15.194Z,41.50
2019-03-06T06:37:43.748Z,41.50
2019-03-06T06:40:15.254Z,41.50
2019-03-06T06:42:43.861Z,41.50
2019-03-06T06:45:16.544Z,41.40
2019-03-06T06:48:22.515Z,41.50
2019-03-06T06:51:01.765Z,41.50
2019-03-06T06:53:39.815Z,41.50
2019-03-06T06:56:45.078Z,41.50
2019-03-06T06:59:16.835Z,41.50
2019-03-06T07:02:01.288Z,41.40
2019-03-06T07:05:09.235Z,41.40
2019-03-06T07:07:45.360Z,41.40
2019-03-06T07:10:31.931Z,41.40
2019-03-06T07:13:18.167Z,41.40
2019-03-06T07:15:51.047Z,41.30
2019-03-06T07:18:24.261Z,41.30
2019-03-06T07:21:00.557Z,41.30
2019-03-06T07:23:36.682Z,41.40
2019-03-06T07:26:24.787Z,41.40
2019-03-06T07:28:57.853Z,41.40
2019-03-06T07:31:36.852Z,41.40
2019-03-06T07:34:09.706Z,41.40
2019-03-06T07:36:51.606Z,41.40
2019-03-06T07:39:22.288Z,41.00
2019-03-06T07:41:55.097Z,41.00
2019-03-06T07:44:34.072Z,40.80
2019-03-06T07:47:20.740Z,40.80
2019-03-06T07:49:54.321Z,40.80
2019-03-06T07:52:27.301Z,40.70
2019-03-06T07:55:15.346Z,40.70
2019-03-06T07:58:20.197Z,40.70
2019-03-06T08:00:49.076Z,40.70
2019-03-06T08:03:19.633Z,40.60
2019-03-06T08:05:48.217Z,40.50
2019-03-06T08:08:17.042Z,40.50
2019-03-06T08:10:45.644Z,40.50
2019-03-06T08:13:18.776Z,40.50
2019-03-06T08:15:51.501Z,40.50
2019-03-06T08:18:21.612Z,40.50
2019-03-06T08:20:54.843Z,40.60
2019-03-06T08:23:30.966Z,40.60
2019-03-06T08:25:59.540Z,40.70
2019-03-06T08:28:28.026Z,40.50
2019-03-06T08:30:58.196Z,40.50
2019-03-06T08:33:27.236Z,40.50
2019-03-06T08:35:55.785Z,40.50
2019-03-06T08:38:24.306Z,40.50
2019-03-06T08:40:52.781Z,40.60
2019-03-06T08:43:23.571Z,40.60
2019-03-06T08:46:10.514Z,40.60
2019-03-06T08:48:40.729Z,40.50
2019-03-06T08:51:10.822Z,40.50
2019-03-06T08:53:44.005Z,40.50
2019-03-06T08:56:14.096Z,40.50
2019-03-06T08:58:52.781Z,40.50
2019-03-06T09:01:40.484Z,40.50
2019-03-06T09:07:12.084Z,40.50
2019-03-06T09:09:42.213Z,40.50
2019-03-06T09:12:28.533Z,40.50
2019-03-06T09:15:01.807Z,40.40
2019-03-06T09:17:48.098Z,40.50
2019-03-06T09:20:37.217Z,40.70
2019-03-06T09:23:23.090Z,40.60
2019-03-06T09:26:05.168Z,40.40
2019-03-06T09:28:39.016Z,40.40
2019-03-06T09:31:09.254Z,40.50
2019-03-06T09:33:48.111Z,40.20
2019-03-06T09:36:19.102Z,40.40
2019-03-06T09:38:55.040Z,40.50
2019-03-06T09:41:25.173Z,40.50
2019-03-06T09:43:57.969Z,40.60
2019-03-06T09:46:30.765Z,40.70
2019-03-06T09:49:17.141Z,40.70
2019-03-06T09:51:53.040Z,40.70
2019-03-06T09:54:28.820Z,40.70
2019-03-06T09:57:14.807Z,40.60
2019-03-06T09:59:54.108Z,40.60
2019-03-06T10:02:36.480Z,40.50
2019-03-06T10:05:11.581Z,40.60
2019-03-06T10:08:00.067Z,40.60
2019-03-06T10:10:32.812Z,40.60
2019-03-06T10:13:03.571Z,40.70
2019-03-06T10:15:50.344Z,40.70
2019-03-06T10:18:29.270Z,41.10
2019-03-06T10:20:57.784Z,40.70
2019-03-06T10:23:26.269Z,40.80
2019-03-06T10:25:54.909Z,40.70
2019-03-06T10:28:28.728Z,40.70
2019-03-06T10:31:02.137Z,40.70
2019-03-06T10:33:23.893Z,40.70
2019-03-06T10:35:52.419Z,40.70
2019-03-06T10:38:20.978Z,40.70
2019-03-06T10:40:49.484Z,40.70
2019-03-06T10:43:18.170Z,40.70
2019-03-06T10:45:46.779Z,40.70
2019-03-06T10:48:15.357Z,40.70
2019-03-06T10:50:43.815Z,40.70
2019-03-06T10:53:12.609Z,40.70
2019-03-06T10:55:41.258Z,40.70
2019-03-06T10:58:09.789Z,40.80
2019-03-06T11:00:51.890Z,40.70
2019-03-06T11:03:20.361Z,40.70
2019-03-06T11:05:49.046Z,40.60
2019-03-06T11:08:17.622Z,40.70
2019-03-06T11:10:46.141Z,40.70
2019-03-06T11:13:14.613Z,40.70
2019-03-06T11:15:43.234Z,40.80
2019-03-06T11:18:11.886Z,40.80
2019-03-06T11:20:40.910Z,40.70
2019-03-06T11:23:12.788Z,40.80
2019-03-06T11:25:41.249Z,40.70
2019-03-06T11:28:12.665Z,40.70
2019-03-06T11:30:44.171Z,40.80
2019-03-06T11:33:12.830Z,40.70
2019-03-06T11:35:41.371Z,40.70
2019-03-06T11:38:10.544Z,40.60
2019-03-06T11:40:39.024Z,41.30
2019-03-06T11:43:08.676Z,41.00
2019-03-06T11:45:38.995Z,40.90
2019-03-06T11:48:07.716Z,41.80
2019-03-06T11:50:40.924Z,41.30
2019-03-06T11:53:07.707Z,41.50
2019-03-06T11:55:36.318Z,41.40
2019-03-06T11:58:05.001Z,41.60
2019-03-06T12:00:47.357Z,41.60
2019-03-06T12:03:18.228Z,41.50
2019-03-06T12:05:48.198Z,42.10
2019-03-06T12:08:18.344Z,43.50
2019-03-06T12:10:46.825Z,43.70
2019-03-06T12:13:16.931Z,43.70
2019-03-06T12:15:50.375Z,44.20
2019-03-06T12:18:21.723Z,44.90
2019-03-06T12:20:50.313Z,44.60
2019-03-06T12:23:18.855Z,44.30
2019-03-06T12:25:47.345Z,44.20
2019-03-06T12:28:15.873Z,44.70
2019-03-06T12:30:44.395Z,44.10
2019-03-06T12:33:16.195Z,44.30
2019-03-06T12:35:44.890Z,45.40
2019-03-06T12:38:13.467Z,45.60
2019-03-06T12:40:42.100Z,44.90
2019-03-06T12:43:10.631Z,45.00
2019-03-06T12:45:39.109Z,45.40
2019-03-06T12:48:11.155Z,47.70
2019-03-06T12:50:40.982Z,48.40
2019-03-06T12:53:09.487Z,45.50
2019-03-06T12:55:37.969Z,45.00
2019-03-06T12:58:06.835Z,45.10
2019-03-06T13:00:36.105Z,46.50
2019-03-06T13:03:05.118Z,46.20
2019-03-06T13:05:33.857Z,46.50
2019-03-06T13:08:02.395Z,47.10
2019-03-06T13:10:31.104Z,46.60
2019-03-06T13:12:59.742Z,47.10
2019-03-06T13:15:28.364Z,47.80
2019-03-06T13:17:57.287Z,47.70
2019-03-06T13:20:25.818Z,47.50
2019-03-06T13:22:54.868Z,47.90
2019-03-06T13:25:24.479Z,47.90
2019-03-06T13:27:55.108Z,48.00
2019-03-06T13:30:25.100Z,48.00
2019-03-06T13:33:13.895Z,48.00
2019-03-06T13:35:42.644Z,47.80
2019-03-06T13:38:11.217Z,47.80
2019-03-06T13:40:40.134Z,47.80
2019-03-06T13:43:08.663Z,47.30
2019-03-06T13:45:38.019Z,47.30
2019-03-06T13:48:06.617Z,47.10
2019-03-06T13:50:35.086Z,45.60
2019-03-06T13:53:03.658Z,44.00
2019-03-06T13:55:32.162Z,43.50
2019-03-06T13:58:00.923Z,42.80
2019-03-06T14:00:29.545Z,42.00
2019-03-06T14:02:58.060Z,41.80
2019-03-06T14:05:26.548Z,41.10
2019-03-06T14:07:56.796Z,40.70
2019-03-06T14:10:25.895Z,40.40
2019-03-06T14:12:54.683Z,40.70
2019-03-06T14:15:23.227Z,41.00
2019-03-06T14:17:52.073Z,41.40
2019-03-06T14:20:22.777Z,41.20
2019-03-06T14:22:51.317Z,41.30
2019-03-06T14:25:20.442Z,41.00
2019-03-06T14:27:49.347Z,41.20
2019-03-06T14:30:27.092Z,41.40
2019-03-06T14:32:55.646Z,41.00
2019-03-06T14:35:24.190Z,40.60
2019-03-06T14:37:52.689Z,40.50
2019-03-06T14:40:32.470Z,40.80
2019-03-06T14:43:02.135Z,40.80
2019-03-06T14:45:30.610Z,40.50
2019-03-06T14:47:59.189Z,40.60
2019-03-06T14:50:27.664Z,40.70
2019-03-06T14:52:56.140Z,41.00
2019-03-06T14:55:24.618Z,41.40
2019-03-06T14:57:53.211Z,40.40
2019-03-06T15:00:22.365Z,40.00
2019-03-06T15:02:50.950Z,39.60
2019-03-06T15:05:19.716Z,40.10
2019-03-06T15:07:48.356Z,40.80
2019-03-06T15:10:20.136Z,40.70
2019-03-06T15:12:48.617Z,39.40
2019-03-06T15:15:22.979Z,40.00
2019-03-06T15:17:51.455Z,38.70
2019-03-06T15:20:21.486Z,38.90
2019-03-06T15:22:54.585Z,39.20
2019-03-06T15:25:25.829Z,39.00
2019-03-06T15:27:54.317Z,38.80
2019-03-06T15:30:22.853Z,39.10
2019-03-06T15:32:51.349Z,37.80
2019-03-06T15:35:20.441Z,38.80
2019-03-06T15:37:49.342Z,39.00
2019-03-06T15:40:30.198Z,37.90
2019-03-06T15:42:58.819Z,38.10
2019-03-06T15:45:28.940Z,38.80
2019-03-06T15:47:59.399Z,39.10
2019-03-06T15:50:28.230Z,39.20
2019-03-06T15:52:56.790Z,39.20
2019-03-06T15:55:27.679Z,39.30
2019-03-06T15:57:56.191Z,39.60
2019-03-06T16:00:30.760Z,39.50
2019-03-06T16:02:59.274Z,39.50
2019-03-06T16:05:27.770Z,39.60
2019-03-06T16:07:57.908Z,39.70
2019-03-06T16:10:27.220Z,39.70
2019-03-06T16:12:55.867Z,39.70
2019-03-06T16:15:26.747Z,39.60
2019-03-06T16:17:56.896Z,39.60
2019-03-06T16:20:25.388Z,39.70
2019-03-06T16:22:53.951Z,39.60
2019-03-06T16:25:22.817Z,39.70
2019-03-06T16:27:51.284Z,39.80
2019-03-06T16:30:21.717Z,39.70
2019-03-06T16:32:50.637Z,39.70
2019-03-06T16:35:19.176Z,39.70
2019-03-06T16:37:47.720Z,39.80
2019-03-06T16:40:18.711Z,39.80
2019-03-06T16:42:48.482Z,39.90
2019-03-06T16:45:18.457Z,39.80
2019-03-06T16:47:46.956Z,39.80
2019-03-06T16:50:17.912Z,39.80
2019-03-06T16:52:46.525Z,39.80
2019-03-06T16:55:22.999Z,39.90
2019-03-06T16:57:51.469Z,39.90
2019-03-06T17:00:34.275Z,39.80
2019-03-06T17:03:06.000Z,39.90
2019-03-06T17:05:34.835Z,39.80
2019-03-06T17:08:03.309Z,39.80
2019-03-06T17:10:32.954Z,39.90
2019-03-06T17:13:01.514Z,39.90
2019-03-06T17:15:33.941Z,39.90
2019-03-06T17:18:03.618Z,39.90
2019-03-06T17:20:34.579Z,39.90
2019-03-06T17:23:03.165Z,39.90
2019-03-06T17:25:32.117Z,39.90
2019-03-06T17:28:01.050Z,39.90
2019-03-06T17:30:37.569Z,39.90
2019-03-06T17:33:11.075Z,39.90
2019-03-06T17:35:39.554Z,39.80
2019-03-06T17:38:10.289Z,39.90
2019-03-06T17:40:38.884Z,39.80
2019-03-06T17:43:07.557Z,39.90
2019-03-06T17:45:36.318Z,39.90
2019-03-06T17:48:05.645Z,39.90
2019-03-06T17:50:34.154Z,39.90
2019-03-06T17:53:02.612Z,39.80
2019-03-06T17:55:31.540Z,40.00
2019-03-06T17:58:00.023Z,39.90
2019-03-06T18:00:45.985Z,40.00
2019-03-06T18:03:16.169Z,39.90
2019-03-06T18:05:44.661Z,39.90
2019-03-06T18:08:13.129Z,40.00
2019-03-06T18:10:41.805Z,39.90
2019-03-06T18:13:10.683Z,39.90
2019-03-06T18:15:39.175Z,40.00
2019-03-06T18:18:07.713Z,40.00
2019-03-06T18:20:36.284Z,39.90
2019-03-06T18:23:05.320Z,40.60
2019-03-06T18:25:33.800Z,39.90
2019-03-06T18:28:02.359Z,39.80
2019-03-06T18:30:30.880Z,39.80
2019-03-06T18:32:59.349Z,39.70
2019-03-06T18:35:27.830Z,39.80
2019-03-06T18:37:56.451Z,39.70
2019-03-06T18:40:26.061Z,39.70
2019-03-06T18:42:55.065Z,39.60
2019-03-06T18:45:23.918Z,39.70
2019-03-06T18:47:52.891Z,39.60
2019-03-06T18:50:22.593Z,39.60
2019-03-06T18:52:51.347Z,39.70
2019-03-06T18:55:20.138Z,39.60
2019-03-06T18:57:48.663Z,39.70
2019-03-06T19:00:19.769Z,39.60
2019-03-06T19:02:48.253Z,39.50
2019-03-06T19:05:18.079Z,39.50
2019-03-06T19:07:46.625Z,39.50
2019-03-06T19:10:22.584Z,39.50
2019-03-06T19:12:51.392Z,39.40
2019-03-06T19:15:25.704Z,39.40
2019-03-06T19:17:54.176Z,39.40
2019-03-06T19:20:22.735Z,39.40
2019-03-06T19:22:51.793Z,39.40
2019-03-06T19:25:20.304Z,39.40
2019-03-06T19:27:49.073Z,39.30
2019-03-06T19:30:25.818Z,39.30
2019-03-06T19:32:54.430Z,39.20
2019-03-06T19:35:30.963Z,39.20
2019-03-06T19:37:59.504Z,39.40
2019-03-06T19:40:33.470Z,39.20
2019-03-06T19:43:01.849Z,39.20
2019-03-06T19:45:30.388Z,39.20
2019-03-06T19:47:58.880Z,39.10
2019-03-06T19:50:27.826Z,39.20
2019-03-06T19:52:56.313Z,39.10
2019-03-06T19:55:25.187Z,39.20
2019-03-06T19:57:59.835Z,39.10
2019-03-06T20:00:29.779Z,39.20
2019-03-06T20:02:58.759Z,39.10
2019-03-06T20:05:34.538Z,39.10
2019-03-06T20:08:02.601Z,38.90
2019-03-06T20:10:31.089Z,38.90
2019-03-06T20:12:59.609Z,38.90
2019-03-06T20:15:28.102Z,38.90
2019-03-06T20:17:56.620Z,38.80
2019-03-06T20:20:25.099Z,38.80
2019-03-06T20:22:53.627Z,38.70
2019-03-06T20:25:22.792Z,39.10
2019-03-06T20:27:53.311Z,39.00
2019-03-06T20:30:25.891Z,39.20
2019-03-06T20:32:54.530Z,39.40
2019-03-06T20:35:24.436Z,39.50
2019-03-06T20:37:53.003Z,39.90
2019-03-06T20:40:21.647Z,40.10
2019-03-06T20:42:50.246Z,40.40
2019-03-06T20:45:19.251Z,40.50
2019-03-06T20:47:47.729Z,40.80
2019-03-06T20:50:17.886Z,40.90
2019-03-06T20:52:46.424Z,41.10
2019-03-06T20:55:15.440Z,41.30
2019-03-06T20:57:44.264Z,41.30
2019-03-06T21:00:15.385Z,41.30
2019-03-06T21:02:43.900Z,41.40
2019-03-06T21:05:12.379Z,41.50
2019-03-06T21:07:45.339Z,41.60
2019-03-06T21:10:16.547Z,41.50
2019-03-06T21:12:45.424Z,41.90
2019-03-06T21:15:17.157Z,42.00
2019-03-06T21:17:45.743Z,42.10
2019-03-06T21:20:16.472Z,42.20
2019-03-06T21:22:44.964Z,42.20
2019-03-06T21:25:15.737Z,42.30
2019-03-06T21:27:44.267Z,42.20
2019-03-06T21:30:41.403Z,42.40
2019-03-06T21:33:09.972Z,42.70
2019-03-06T21:35:38.500Z,42.20
2019-03-06T21:38:06.997Z,42.80
2019-03-06T21:40:35.534Z,41.80
2019-03-06T21:43:07.357Z,41.60
2019-03-06T21:45:36.041Z,41.60
2019-03-06T21:48:04.511Z,41.60
2019-03-06T21:50:32.967Z,41.60
2019-03-06T21:53:01.451Z,41.60
2019-03-06T21:55:30.341Z,41.60
2019-03-06T21:57:58.880Z,41.60
2019-03-06T22:00:30.607Z,41.70
2019-03-06T22:02:59.437Z,41.70
2019-03-06T22:05:27.926Z,41.70
2019-03-06T22:07:59.556Z,41.80
2019-03-06T22:10:28.182Z,41.80
2019-03-06T22:12:56.887Z,41.40
2019-03-06T22:15:25.472Z,41.20
2019-03-06T22:17:53.933Z,41.30
2019-03-06T22:20:22.459Z,41.30
2019-03-06T22:22:50.911Z,41.30
2019-03-06T22:25:22.883Z,41.30
2019-03-06T22:27:51.348Z,41.30
2019-03-06T22:30:22.717Z,41.30
2019-03-06T22:32:54.580Z,41.40
2019-03-06T22:35:24.227Z,41.30
2019-03-06T22:37:52.822Z,41.30
2019-03-06T22:40:21.338Z,41.30
2019-03-06T22:42:49.832Z,41.30
2019-03-06T22:45:19.799Z,41.30
2019-03-06T22:47:48.329Z,41.30
2019-03-06T22:50:18.147Z,41.40
2019-03-06T22:52:46.676Z,41.40
2019-03-06T22:55:17.999Z,41.40
2019-03-06T22:57:46.453Z,41.40
2019-03-06T23:00:30.237Z,41.60
2019-03-06T23:02:58.790Z,41.80
2019-03-06T23:05:29.448Z,41.80
2019-03-06T23:07:57.922Z,41.70
2019-03-06T23:10:26.397Z,41.70
2019-03-06T23:12:54.857Z,41.70
2019-03-06T23:15:23.350Z,41.50
2019-03-06T23:17:51.837Z,41.30
2019-03-06T23:20:20.296Z,40.80
2019-03-06T23:22:48.788Z,39.80
2019-03-06T23:25:18.256Z,40.40
2019-03-06T23:27:47.084Z,40.20
2019-03-06T23:30:16.340Z,40.10
2019-03-06T23:32:45.210Z,40.20
2019-03-06T23:35:13.681Z,40.10
2019-03-06T23:37:42.217Z,40.00
2019-03-06T23:40:11.496Z,40.00
2019-03-06T23:42:40.087Z,39.90
2019-03-06T23:45:12.865Z,39.90
2019-03-06T23:47:41.948Z,39.80
2019-03-06T23:50:12.807Z,39.70
2019-03-06T23:52:59.145Z,39.80
2019-03-06T23:55:29.254Z,39.80
2019-03-06T23:57:58.067Z,39.80
